Airfield :
LOGIN :

Register | Disclaimer

   EN    FR    IT 

 










Legend :    VFR   Marginal VFR   IFR   Intensive IFR   Very Intensive IFR
Visi :
Ceiling :
>= 8 km
>= 3000ft
5 to 8 km
1000 to 3000 ft
1500m to 5 km
500 to 1000 ft
800 to 1500m
200 to 500 ft
< 800m
< 200 ft
Symbols :   Thunderstorms  Fog  Heavy snow  Heavy precipitations  Wind > 20 kt
SIGMETs :     Misc.  Thunderstorms  Icing  Turbulence  Mountain Waves  Volcanic Ashes







- Airport Elevation : 1989 ft
- IATA code : KLV


LKKV - Karlovy Vary

CURRENT METAR :
  • 171830Z 24008KT 210V280 9999 SCT015 BKN046 02/00 Q1002 R29///////

EXPIRED METARs :
  • 171815Z 24007KT 200V280 9999 SCT015 BKN046 01/00 Q1002 R29/////// RMK REG QNH 0999
  • 171800Z 25010G20KT 220V290 9999 -SNRA SCT006 BKN015 01/M00 Q1002 R29///////
  • 171750Z 24009KT 190V280 9999 -RASN SCT012 BKN020 02/00 Q1002 R29/////// RMK REG QNH 0999
  • 171730Z 21009KT 180V260 9999 -RA FEW018 BKN049 02/00 Q1001 R29///////
  • 171700Z 23009KT 190V270 9999 FEW013 SCT042 02/00 Q1001 R29///////
  • 171630Z 23009KT 200V260 9999 FEW015 SCT036 02/00 Q1002 R29///////
  • 171600Z 23007KT 190V280 9999 SCT016 02/00 Q1002 R29///////

TAF TAF LKKV
Valid from the 17 at 18:00 until the 19 at 00:00 UTC


171700Z 1718/1900 24008KT 9999 BKN015
TEMPO 1718/1723 26012G26KT 3000 RASN BKN011
TEMPO 1800/1810 1200 SN BKN006
BECMG 1806/1808 29010KT
BECMG 1816/1818 VRB02KT
No reported NOTAMs for that airfield.



MET'MAP, your aeronautical weather chart ! - Copyright ORBIFLY December 2007 - Disclaimer

ORBIFLY MET'MAP TEAM :

Programming & Development : Alexandra Zaïnal
Concept & Development : Baudouin d'Aumeries
Co-Development & Prog : Marc-Olivier Méhu
Technical & hardware support : Manuel Goepfert

Contact : metmap@orbifly.com




SOURCES & CREDITS :

   NOAA